Alpine, Oregon
Current Conditions -  °F | °C
As of 6:55 PM on Friday 19 Dec 2014 (Local Time) from KCVO Reporting Station
Broken Clouds Broken Clouds  
Wind Chill: 44°   Ceiling: 9500
Heat Index: 48°   Visibility: 10mi
Dew Point: 45°   Wind: 10mph
Humidity: 87%   Direction: 150°SSE
Pressure: 29.99"   Gusts: NA
Location:  44.3398°N, 123.353°W
Report Text: KCVO 200255Z AUTO 15009KT 10SM BKN095 09/07 A2999 RMK AO1 57003
Loading
Personal Weather Stations






























Interactive Weather Map New forecast layout! Learn more

10-Day Weather Forecast

Advertisements
Track Severe Weather on mobile